createdAt,value
2018-08-20T00:00:05.778Z,3.70
2018-08-20T00:01:05.778Z,3.90
2018-08-20T00:02:05.784Z,4.00
2018-08-20T00:03:05.780Z,3.70
2018-08-20T00:04:05.786Z,3.80
2018-08-20T00:05:05.781Z,3.80
2018-08-20T00:06:05.784Z,3.70
2018-08-20T00:07:05.788Z,4.00
2018-08-20T00:08:05.789Z,3.80
2018-08-20T00:09:05.790Z,3.80
2018-08-20T00:10:05.788Z,3.50
2018-08-20T00:11:05.793Z,3.60
2018-08-20T00:12:05.796Z,3.50
2018-08-20T00:13:05.794Z,3.70
2018-08-20T00:14:05.795Z,3.90
2018-08-20T00:15:05.798Z,3.70
2018-08-20T00:16:05.801Z,3.90
2018-08-20T00:17:05.802Z,3.80
2018-08-20T00:18:05.803Z,3.70
2018-08-20T00:19:05.805Z,3.70
2018-08-20T00:20:05.811Z,3.70
2018-08-20T00:21:05.806Z,3.60
2018-08-20T00:22:05.813Z,3.90
2018-08-20T00:23:05.810Z,3.80
2018-08-20T00:24:05.809Z,3.80
2018-08-20T00:25:05.816Z,3.70
2018-08-20T00:26:05.811Z,3.90
2018-08-20T00:27:05.812Z,3.40
2018-08-20T00:28:05.814Z,3.50
2018-08-20T00:29:05.815Z,3.80
2018-08-20T00:30:05.820Z,4.00
2018-08-20T00:31:05.819Z,3.70
2018-08-20T00:32:05.823Z,3.70
2018-08-20T00:33:05.822Z,3.70
2018-08-20T00:34:05.821Z,3.80
2018-08-20T00:35:05.823Z,3.60
2018-08-20T00:36:05.820Z,3.80
2018-08-20T00:37:05.826Z,3.50
2018-08-20T00:38:05.827Z,3.50
2018-08-20T00:39:05.830Z,3.80
2018-08-20T00:40:05.830Z,3.80
2018-08-20T00:41:05.833Z,3.70
2018-08-20T00:42:05.833Z,3.50
2018-08-20T00:43:05.833Z,3.50
2018-08-20T00:44:05.847Z,3.80
2018-08-20T00:45:05.839Z,3.90
2018-08-20T00:46:05.840Z,3.60
2018-08-20T00:47:05.837Z,3.50
2018-08-20T00:48:05.840Z,3.90
2018-08-20T00:49:05.840Z,3.80
2018-08-20T00:50:05.845Z,3.80
2018-08-20T00:51:05.844Z,4.00
2018-08-20T00:52:05.846Z,3.80
2018-08-20T00:53:05.845Z,4.30
2018-08-20T00:54:05.850Z,3.80
2018-08-20T00:55:05.851Z,3.70
2018-08-20T00:56:05.847Z,4.30
2018-08-20T00:57:05.852Z,4.30
2018-08-20T00:58:05.851Z,3.80
2018-08-20T00:59:05.856Z,3.90
2018-08-20T01:00:05.854Z,4.20
2018-08-20T01:01:05.859Z,4.30
2018-08-20T01:02:05.856Z,4.30
2018-08-20T01:03:05.856Z,4.50
2018-08-20T01:04:05.862Z,4.30
2018-08-20T01:05:05.860Z,4.30
2018-08-20T01:06:05.856Z,4.10
2018-08-20T01:07:05.862Z,4.30
2018-08-20T01:08:05.863Z,4.40
2018-08-20T01:09:05.867Z,4.60
2018-08-20T01:10:05.867Z,4.50
2018-08-20T01:11:05.868Z,4.40
2018-08-20T01:12:05.870Z,4.40
2018-08-20T01:13:05.867Z,4.50
2018-08-20T01:14:05.872Z,4.30
2018-08-20T01:15:05.872Z,4.50
2018-08-20T01:16:05.876Z,4.40
2018-08-20T01:17:05.874Z,4.50
2018-08-20T01:18:05.876Z,4.60
2018-08-20T01:19:05.877Z,4.40
2018-08-20T01:20:05.879Z,4.50
2018-08-20T01:21:05.879Z,4.70
2018-08-20T01:22:05.880Z,4.40
2018-08-20T01:23:05.882Z,4.50
2018-08-20T01:24:05.884Z,4.60
2018-08-20T01:25:05.884Z,4.50
2018-08-20T01:26:05.895Z,4.90
2018-08-20T01:27:05.889Z,5.10
2018-08-20T01:28:05.887Z,4.80
2018-08-20T01:29:05.890Z,4.80
2018-08-20T01:30:05.888Z,4.80
2018-08-20T01:31:05.893Z,4.80
2018-08-20T01:32:05.891Z,4.80
2018-08-20T01:33:05.889Z,5.20
2018-08-20T01:34:05.894Z,5.00
2018-08-20T01:35:05.895Z,5.00
2018-08-20T01:36:05.898Z,4.80
2018-08-20T01:37:05.899Z,4.60
2018-08-20T01:38:05.900Z,4.90
2018-08-20T01:39:05.902Z,5.30
2018-08-20T01:40:05.904Z,5.20
2018-08-20T01:41:05.905Z,5.10
2018-08-20T01:42:05.903Z,4.80
2018-08-20T01:43:05.904Z,5.10
2018-08-20T01:44:05.905Z,5.10
2018-08-20T01:45:05.905Z,5.20
2018-08-20T01:46:05.907Z,4.90
2018-08-20T01:47:05.909Z,4.90
2018-08-20T01:48:05.909Z,4.90
2018-08-20T01:49:05.915Z,5.10
2018-08-20T01:50:05.911Z,5.20
2018-08-20T01:51:05.913Z,5.40
2018-08-20T01:52:05.916Z,5.40
2018-08-20T01:53:05.911Z,5.20
2018-08-20T01:54:05.916Z,5.10
2018-08-20T01:55:05.918Z,5.30
2018-08-20T01:56:05.918Z,5.00
2018-08-20T01:57:05.915Z,5.00
2018-08-20T01:58:05.920Z,5.30
2018-08-20T01:59:05.929Z,5.30
2018-08-20T02:00:05.923Z,5.20
2018-08-20T02:01:05.922Z,5.20
2018-08-20T02:02:05.925Z,5.20
2018-08-20T02:03:05.926Z,5.20
2018-08-20T02:04:05.926Z,5.40
2018-08-20T02:05:05.927Z,5.20
2018-08-20T02:06:05.928Z,5.70
2018-08-20T02:07:05.929Z,5.50
2018-08-20T02:08:05.932Z,5.40
2018-08-20T02:09:05.933Z,4.90
2018-08-20T02:10:05.933Z,5.60
2018-08-20T02:11:05.936Z,5.20
2018-08-20T02:12:05.942Z,5.40
2018-08-20T02:13:05.936Z,5.00
2018-08-20T02:14:05.940Z,5.40
2018-08-20T02:15:05.943Z,5.60
2018-08-20T02:16:05.941Z,5.40
2018-08-20T02:17:05.940Z,5.80
2018-08-20T02:18:05.941Z,5.70
2018-08-20T02:19:05.944Z,5.70
2018-08-20T02:20:05.948Z,5.60
2018-08-20T02:21:05.944Z,5.30
2018-08-20T02:22:05.951Z,5.60
2018-08-20T02:23:05.944Z,5.80
2018-08-20T02:24:05.949Z,5.80
2018-08-20T02:25:05.949Z,5.70
2018-08-20T02:26:05.950Z,5.70
2018-08-20T02:27:05.950Z,5.40
2018-08-20T02:28:05.950Z,5.60
2018-08-20T02:29:05.954Z,5.80
2018-08-20T02:30:05.951Z,5.90
2018-08-20T02:31:05.956Z,5.30
2018-08-20T02:32:05.956Z,5.60
2018-08-20T02:33:05.955Z,5.80
2018-08-20T02:34:05.962Z,6.00
2018-08-20T02:35:05.968Z,5.70
2018-08-20T02:36:05.955Z,5.60
2018-08-20T02:37:05.958Z,5.70
2018-08-20T02:38:05.960Z,5.60
2018-08-20T02:39:05.964Z,5.60
2018-08-20T02:40:05.967Z,5.60
2018-08-20T02:41:05.965Z,5.80
2018-08-20T02:42:05.964Z,5.70
2018-08-20T02:43:05.965Z,5.70
2018-08-20T02:44:05.965Z,5.70
2018-08-20T02:45:05.969Z,5.90
2018-08-20T02:46:05.962Z,5.90
2018-08-20T02:47:05.968Z,6.10
2018-08-20T02:48:05.969Z,5.50
2018-08-20T02:49:05.970Z,5.90
2018-08-20T02:50:05.970Z,5.70
2018-08-20T02:51:05.972Z,6.00
2018-08-20T02:52:05.976Z,6.00
2018-08-20T02:53:05.975Z,6.10
2018-08-20T02:54:05.978Z,6.00
2018-08-20T02:55:05.977Z,5.80
2018-08-20T02:56:05.977Z,5.80
2018-08-20T02:57:05.987Z,6.40
2018-08-20T02:58:05.976Z,5.90
2018-08-20T02:59:05.979Z,5.70
2018-08-20T03:00:05.982Z,6.50
2018-08-20T03:01:05.980Z,6.00
2018-08-20T03:02:06.053Z,6.40
2018-08-20T03:03:05.982Z,6.50
2018-08-20T03:04:05.986Z,6.30
2018-08-20T03:05:05.983Z,6.30
2018-08-20T03:06:05.985Z,6.50
2018-08-20T03:07:05.991Z,6.70
2018-08-20T03:08:05.988Z,6.30
2018-08-20T03:09:05.987Z,6.70
2018-08-20T03:10:05.988Z,6.50
2018-08-20T03:11:05.986Z,6.40
2018-08-20T03:12:05.987Z,6.60
2018-08-20T03:13:05.989Z,7.00
2018-08-20T03:14:05.990Z,6.60
2018-08-20T03:15:05.990Z,6.80
2018-08-20T03:16:05.991Z,7.00
2018-08-20T03:17:05.999Z,6.50
2018-08-20T03:18:05.994Z,6.70
2018-08-20T03:19:05.993Z,6.80
2018-08-20T03:20:05.995Z,6.50
2018-08-20T03:21:05.996Z,6.30
2018-08-20T03:22:05.994Z,6.40
2018-08-20T03:23:05.992Z,6.50
2018-08-20T03:24:05.997Z,6.70
2018-08-20T03:25:05.996Z,6.80
2018-08-20T03:26:05.999Z,7.10
2018-08-20T03:27:05.998Z,6.80
2018-08-20T03:28:05.997Z,6.90
2018-08-20T03:29:06.009Z,6.60
2018-08-20T03:30:06.005Z,6.60
2018-08-20T03:31:06.009Z,6.60
2018-08-20T03:32:06.002Z,6.70
2018-08-20T03:33:06.003Z,6.80
2018-08-20T03:34:06.009Z,7.00
2018-08-20T03:35:06.004Z,7.40
2018-08-20T03:36:06.005Z,6.90
2018-08-20T03:37:06.007Z,7.00
2018-08-20T03:38:06.002Z,6.90
2018-08-20T03:39:06.008Z,7.40
2018-08-20T03:40:06.007Z,7.10
2018-08-20T03:41:06.006Z,6.90
2018-08-20T03:42:06.011Z,7.30
2018-08-20T03:43:06.010Z,7.10
2018-08-20T03:44:06.010Z,7.00
2018-08-20T03:45:06.009Z,7.20
2018-08-20T03:46:06.013Z,7.20
2018-08-20T03:47:06.013Z,7.40
2018-08-20T03:48:06.011Z,7.40
2018-08-20T03:49:06.011Z,7.50
2018-08-20T03:50:06.015Z,7.50
2018-08-20T03:51:06.012Z,7.60
2018-08-20T03:52:06.013Z,7.30
2018-08-20T03:53:06.013Z,7.50
2018-08-20T03:54:06.015Z,7.50
2018-08-20T03:55:06.013Z,7.30
2018-08-20T03:56:06.019Z,7.70
2018-08-20T03:57:06.016Z,7.30
2018-08-20T03:58:06.016Z,7.40
2018-08-20T03:59:06.017Z,7.30
2018-08-20T04:00:06.019Z,7.80
2018-08-20T04:01:06.015Z,8.00
2018-08-20T04:02:06.019Z,7.90
2018-08-20T04:03:06.023Z,7.60
2018-08-20T04:04:06.020Z,7.50
2018-08-20T04:05:06.151Z,7.90
2018-08-20T04:06:06.052Z,7.50
2018-08-20T04:07:06.021Z,7.80
2018-08-20T04:08:06.023Z,7.40
2018-08-20T04:09:06.023Z,7.30
2018-08-20T04:10:06.021Z,7.50
2018-08-20T04:11:06.026Z,7.90
2018-08-20T04:12:06.022Z,7.40
2018-08-20T04:13:06.026Z,7.80
2018-08-20T04:14:06.024Z,7.30
2018-08-20T04:15:06.025Z,7.80
2018-08-20T04:16:06.026Z,7.80
2018-08-20T04:17:06.028Z,8.00
2018-08-20T04:18:06.078Z,7.80
2018-08-20T04:19:06.026Z,7.90
2018-08-20T04:20:06.031Z,7.70
2018-08-20T04:21:06.026Z,7.70
2018-08-20T04:22:06.026Z,8.10
2018-08-20T04:23:06.029Z,7.70
2018-08-20T04:24:06.031Z,7.80
2018-08-20T04:25:06.029Z,8.10
2018-08-20T04:26:06.032Z,7.80
2018-08-20T04:27:06.037Z,7.70
2018-08-20T04:28:06.035Z,8.00
2018-08-20T04:29:06.031Z,7.80
2018-08-20T04:30:06.033Z,7.90
2018-08-20T04:31:06.034Z,8.00
2018-08-20T04:32:06.028Z,8.10
2018-08-20T04:33:06.040Z,8.00
2018-08-20T04:34:06.032Z,7.90
2018-08-20T04:35:06.036Z,7.70
2018-08-20T04:36:06.037Z,7.80
2018-08-20T04:37:06.046Z,7.90
2018-08-20T04:38:06.042Z,8.10
2018-08-20T04:39:06.037Z,7.70
2018-08-20T04:40:06.041Z,7.60
2018-08-20T04:41:06.037Z,7.90
2018-08-20T04:42:06.045Z,7.90
2018-08-20T04:43:06.045Z,7.50
2018-08-20T04:44:06.045Z,8.30
2018-08-20T04:45:06.041Z,8.10
2018-08-20T04:46:06.042Z,8.00
2018-08-20T04:47:06.047Z,8.40
2018-08-20T04:48:06.045Z,8.50
2018-08-20T04:49:06.044Z,8.40
2018-08-20T04:50:06.220Z,8.10
2018-08-20T04:51:06.159Z,8.80
2018-08-20T04:52:06.051Z,8.00
2018-08-20T04:53:06.049Z,7.90
2018-08-20T04:54:06.047Z,8.30
2018-08-20T04:55:06.047Z,8.80
2018-08-20T04:56:06.049Z,8.50
2018-08-20T04:57:06.049Z,7.50
2018-08-20T04:58:06.053Z,7.60
2018-08-20T04:59:06.051Z,7.60
2018-08-20T05:00:06.053Z,8.10
2018-08-20T05:01:06.055Z,8.40
2018-08-20T05:02:06.057Z,8.30
2018-08-20T05:03:06.059Z,7.90
2018-08-20T05:04:06.099Z,8.30
2018-08-20T05:05:06.062Z,8.90
2018-08-20T05:06:06.060Z,8.80
2018-08-20T05:07:06.057Z,8.90
2018-08-20T05:08:06.070Z,8.80
2018-08-20T05:09:06.060Z,8.70
2018-08-20T05:10:06.121Z,8.80
2018-08-20T05:11:06.065Z,8.70
2018-08-20T05:12:06.066Z,8.70
2018-08-20T05:13:06.066Z,8.60
2018-08-20T05:14:06.071Z,8.40
2018-08-20T05:15:06.070Z,8.60
2018-08-20T05:16:06.071Z,8.30
2018-08-20T05:17:06.072Z,7.70
2018-08-20T05:18:06.083Z,7.90
2018-08-20T05:19:06.091Z,8.10
2018-08-20T05:20:06.086Z,7.70
2018-08-20T05:21:06.079Z,7.80
2018-08-20T05:22:06.080Z,8.30
2018-08-20T05:23:06.083Z,7.80
2018-08-20T05:24:06.085Z,8.20
2018-08-20T05:25:06.091Z,7.50
2018-08-20T05:26:06.090Z,8.40
2018-08-20T05:27:06.091Z,7.80
2018-08-20T05:28:06.093Z,7.90
2018-08-20T05:29:06.099Z,8.30
2018-08-20T05:30:06.097Z,8.10
2018-08-20T05:31:06.100Z,8.20
2018-08-20T05:32:06.105Z,8.30
2018-08-20T05:33:06.144Z,8.00
2018-08-20T05:34:06.107Z,8.00
2018-08-20T05:35:06.113Z,8.50
2018-08-20T05:36:06.112Z,8.30
2018-08-20T05:37:06.114Z,7.70
2018-08-20T05:38:06.117Z,7.90
2018-08-20T05:39:06.122Z,8.30
2018-08-20T05:40:06.126Z,8.40
2018-08-20T05:41:06.124Z,8.00
2018-08-20T05:42:06.122Z,8.40
2018-08-20T05:43:06.129Z,8.00
2018-08-20T05:44:06.141Z,7.70
2018-08-20T05:45:06.132Z,8.10
2018-08-20T05:46:06.145Z,8.00
2018-08-20T05:47:06.137Z,8.30
2018-08-20T05:48:06.141Z,8.40
2018-08-20T05:49:06.142Z,8.30
2018-08-20T05:50:06.146Z,7.70
2018-08-20T05:51:06.148Z,8.20
2018-08-20T05:52:06.147Z,8.00
2018-08-20T05:53:06.150Z,8.40
2018-08-20T05:54:06.153Z,8.20
2018-08-20T05:55:06.154Z,8.10
2018-08-20T05:56:06.159Z,8.20
2018-08-20T05:57:06.161Z,8.00
2018-08-20T05:58:06.170Z,8.10
2018-08-20T05:59:06.222Z,8.20
2018-08-20T06:00:06.170Z,8.00
2018-08-20T06:01:06.172Z,8.60
2018-08-20T06:02:06.173Z,8.60
2018-08-20T06:03:06.178Z,8.60
2018-08-20T06:04:06.181Z,8.90
2018-08-20T06:05:06.183Z,9.00
2018-08-20T06:06:06.182Z,9.10
2018-08-20T06:07:06.185Z,9.00
2018-08-20T06:08:06.197Z,8.90
2018-08-20T06:09:06.189Z,8.60
2018-08-20T06:10:06.194Z,8.60
2018-08-20T06:11:06.201Z,8.80
2018-08-20T06:12:06.201Z,9.10
2018-08-20T06:13:06.206Z,8.60
2018-08-20T06:14:06.208Z,8.60
2018-08-20T06:15:06.265Z,8.80
2018-08-20T06:16:06.210Z,9.10
2018-08-20T06:17:06.214Z,9.10
2018-08-20T06:18:06.217Z,9.30
2018-08-20T06:19:06.221Z,9.50
2018-08-20T06:20:06.226Z,9.20
2018-08-20T06:21:06.227Z,9.00
2018-08-20T06:22:06.230Z,8.40
2018-08-20T06:23:06.232Z,8.70
2018-08-20T06:24:06.235Z,8.80
2018-08-20T06:25:06.299Z,8.40
2018-08-20T06:26:06.240Z,8.50
2018-08-20T06:27:06.246Z,8.30
2018-08-20T06:28:06.248Z,8.30
2018-08-20T06:29:06.251Z,8.70
2018-08-20T06:30:06.251Z,8.60
2018-08-20T06:31:06.261Z,8.70
2018-08-20T06:32:06.262Z,8.20
2018-08-20T06:33:06.267Z,8.40
2018-08-20T06:34:06.268Z,8.10
2018-08-20T06:35:06.265Z,7.90
2018-08-20T06:36:06.274Z,8.00
2018-08-20T06:37:06.274Z,8.10
2018-08-20T06:38:06.277Z,7.70
2018-08-20T06:39:06.280Z,7.60
2018-08-20T06:40:06.285Z,7.80
2018-08-20T06:41:06.288Z,7.90
2018-08-20T06:42:06.297Z,7.70
2018-08-20T06:43:06.298Z,7.30
2018-08-20T06:44:06.301Z,7.80
2018-08-20T06:45:06.305Z,8.00
2018-08-20T06:46:06.304Z,7.60
2018-08-20T06:47:06.319Z,7.70
2018-08-20T06:48:06.320Z,7.70
2018-08-20T06:49:06.318Z,7.80
2018-08-20T06:50:06.325Z,7.70
2018-08-20T06:51:06.332Z,7.70
2018-08-20T06:52:06.328Z,7.50
2018-08-20T06:53:06.330Z,7.50
2018-08-20T06:54:06.336Z,7.50
2018-08-20T06:55:06.360Z,7.70
2018-08-20T06:56:06.342Z,7.80
2018-08-20T06:57:06.344Z,7.50
2018-08-20T06:58:06.348Z,7.60
2018-08-20T06:59:06.354Z,7.70
2018-08-20T07:00:06.357Z,7.80
2018-08-20T07:01:06.357Z,7.60
2018-08-20T07:02:06.364Z,7.60
2018-08-20T07:03:06.366Z,7.60
2018-08-20T07:04:06.369Z,8.20
2018-08-20T07:05:06.378Z,7.20
2018-08-20T07:06:06.371Z,8.10
2018-08-20T07:07:06.381Z,8.10
2018-08-20T07:08:06.385Z,7.80
2018-08-20T07:09:06.383Z,7.50
2018-08-20T07:10:06.391Z,7.10
2018-08-20T07:11:06.391Z,7.50
2018-08-20T07:12:06.393Z,7.70
2018-08-20T07:13:06.400Z,7.70
2018-08-20T07:14:06.404Z,8.10
2018-08-20T07:15:06.405Z,7.50
2018-08-20T07:16:06.408Z,7.80
2018-08-20T07:17:06.410Z,7.60
2018-08-20T07:18:06.414Z,7.70
2018-08-20T07:19:06.420Z,7.80
2018-08-20T07:20:06.425Z,7.50
2018-08-20T07:21:06.423Z,7.20
2018-08-20T07:22:06.428Z,7.60
2018-08-20T07:23:06.445Z,7.70
2018-08-20T07:24:06.433Z,7.30
2018-08-20T07:25:06.436Z,7.40
2018-08-20T07:26:06.443Z,8.40
2018-08-20T07:27:06.445Z,7.50
2018-08-20T07:28:06.452Z,7.60
2018-08-20T07:29:06.451Z,7.90
2018-08-20T07:30:06.455Z,7.60
2018-08-20T07:31:06.458Z,7.50
2018-08-20T07:32:06.459Z,7.00
2018-08-20T07:33:06.496Z,7.30
2018-08-20T07:34:06.470Z,7.50
2018-08-20T07:35:06.488Z,7.10
2018-08-20T07:36:06.476Z,7.00
2018-08-20T07:37:06.480Z,7.60
2018-08-20T07:38:06.483Z,8.00
2018-08-20T07:39:06.486Z,7.40
2018-08-20T07:40:06.491Z,7.50
2018-08-20T07:41:06.494Z,7.60
2018-08-20T07:42:06.498Z,7.30
2018-08-20T07:43:06.503Z,7.20
2018-08-20T07:44:06.507Z,7.20
2018-08-20T07:45:06.511Z,7.70
2018-08-20T07:46:06.512Z,7.40
2018-08-20T07:47:06.518Z,7.50
2018-08-20T07:48:06.520Z,7.20
2018-08-20T07:49:06.528Z,7.30
2018-08-20T07:50:06.542Z,7.20
2018-08-20T07:51:06.532Z,7.10
2018-08-20T07:52:06.535Z,7.40
2018-08-20T07:53:06.539Z,7.30
2018-08-20T07:54:06.542Z,7.60
2018-08-20T07:55:06.552Z,7.10
2018-08-20T07:56:06.551Z,7.40
2018-08-20T07:57:06.554Z,7.10
2018-08-20T07:58:06.560Z,7.00
2018-08-20T07:59:06.567Z,7.00
2018-08-20T08:00:06.569Z,6.90
2018-08-20T08:01:06.571Z,6.70
2018-08-20T08:02:06.575Z,7.10
2018-08-20T08:03:06.583Z,7.30
2018-08-20T08:04:06.583Z,7.50
2018-08-20T08:05:06.585Z,7.10
2018-08-20T08:06:06.590Z,6.90
2018-08-20T08:07:06.593Z,6.70
2018-08-20T08:08:06.598Z,6.80
2018-08-20T08:09:06.605Z,6.20
2018-08-20T08:10:06.605Z,6.50
2018-08-20T08:11:06.608Z,6.60
2018-08-20T08:12:06.613Z,6.80
2018-08-20T08:13:06.615Z,6.60
2018-08-20T08:14:06.620Z,6.30
2018-08-20T08:15:06.625Z,6.50
2018-08-20T08:16:06.627Z,6.30
2018-08-20T08:17:06.628Z,6.00
2018-08-20T08:18:06.637Z,6.50
2018-08-20T08:19:06.638Z,6.00
2018-08-20T08:20:06.639Z,6.40
2018-08-20T08:21:06.644Z,6.30
2018-08-20T08:22:06.647Z,6.10
2018-08-20T08:23:06.651Z,5.80
2018-08-20T08:24:06.655Z,6.20
2018-08-20T08:25:06.660Z,6.20
2018-08-20T08:26:06.666Z,6.00
2018-08-20T08:27:06.670Z,5.60
2018-08-20T08:28:06.670Z,5.80
2018-08-20T08:29:06.674Z,5.80
2018-08-20T08:30:06.677Z,6.00
2018-08-20T08:31:06.681Z,6.20
2018-08-20T08:32:06.687Z,5.90
2018-08-20T08:33:06.689Z,6.10
2018-08-20T08:34:06.687Z,6.10
2018-08-20T08:35:06.697Z,6.20
2018-08-20T08:36:06.702Z,6.30
2018-08-20T08:37:06.702Z,6.40
2018-08-20T08:38:06.806Z,6.10
2018-08-20T08:39:06.713Z,6.40
2018-08-20T08:40:06.762Z,6.10
2018-08-20T08:41:06.725Z,5.90
2018-08-20T08:42:06.725Z,5.70
2018-08-20T08:43:06.908Z,5.30
2018-08-20T08:44:06.728Z,5.70
2018-08-20T08:45:06.875Z,5.10
2018-08-20T08:46:06.737Z,5.20
2018-08-20T08:47:06.743Z,5.10
2018-08-20T08:48:06.749Z,4.70
2018-08-20T08:49:06.747Z,4.60
2018-08-20T08:50:06.755Z,4.40
2018-08-20T08:51:06.756Z,3.90
2018-08-20T08:52:06.760Z,4.20
2018-08-20T08:53:06.766Z,4.00
2018-08-20T08:54:06.767Z,4.20
2018-08-20T08:55:06.767Z,4.00
2018-08-20T08:56:06.771Z,4.10
2018-08-20T08:57:06.778Z,4.20
2018-08-20T08:58:06.791Z,3.90
2018-08-20T08:59:06.793Z,4.00
2018-08-20T09:00:06.793Z,3.90
2018-08-20T09:01:06.794Z,3.80
2018-08-20T09:02:06.801Z,4.10
2018-08-20T09:03:06.804Z,3.80
2018-08-20T09:04:06.808Z,4.20
2018-08-20T09:05:06.812Z,4.20
2018-08-20T09:06:06.819Z,3.80
2018-08-20T09:07:06.817Z,3.90
2018-08-20T09:08:06.855Z,3.90
2018-08-20T09:09:06.864Z,4.10
2018-08-20T09:10:06.840Z,4.00
2018-08-20T09:11:06.840Z,3.70
2018-08-20T09:12:06.843Z,4.20
2018-08-20T09:13:06.861Z,4.20
2018-08-20T09:14:06.997Z,4.00
2018-08-20T09:15:06.998Z,4.10
2018-08-20T09:16:06.870Z,3.70
2018-08-20T09:17:06.862Z,4.00
2018-08-20T09:18:06.998Z,3.90
2018-08-20T09:19:06.875Z,3.70
2018-08-20T09:20:06.879Z,3.70
2018-08-20T09:21:06.888Z,3.80
2018-08-20T09:22:06.885Z,4.00
2018-08-20T09:23:06.888Z,4.10
2018-08-20T09:24:06.893Z,4.00
2018-08-20T09:25:06.898Z,3.70
2018-08-20T09:26:06.900Z,3.90
2018-08-20T09:27:06.906Z,3.80
2018-08-20T09:28:06.986Z,4.00
2018-08-20T09:29:06.977Z,3.90
2018-08-20T09:30:06.919Z,4.00
2018-08-20T09:31:06.922Z,4.10
2018-08-20T09:32:06.928Z,3.90
2018-08-20T09:33:06.941Z,3.80
2018-08-20T09:34:06.940Z,4.10
2018-08-20T09:35:06.945Z,4.10
2018-08-20T09:36:06.939Z,4.40
2018-08-20T09:37:06.951Z,4.30
2018-08-20T09:38:06.953Z,4.20
2018-08-20T09:39:06.955Z,4.30
2018-08-20T09:40:06.964Z,4.30
2018-08-20T09:41:06.964Z,4.10
2018-08-20T09:42:06.972Z,4.50
2018-08-20T09:43:06.974Z,4.60
2018-08-20T09:44:07.006Z,4.50
2018-08-20T09:45:06.982Z,4.30
2018-08-20T09:46:07.029Z,4.80
2018-08-20T09:47:06.990Z,4.40
2018-08-20T09:48:06.995Z,4.80
2018-08-20T09:49:06.998Z,4.80
2018-08-20T09:50:07.003Z,4.90
2018-08-20T09:51:07.007Z,4.80
2018-08-20T09:52:07.016Z,4.50
2018-08-20T09:53:07.149Z,4.90
2018-08-20T09:54:07.181Z,4.90
2018-08-20T09:55:07.024Z,4.80
2018-08-20T09:56:07.027Z,4.50
2018-08-20T09:57:07.032Z,4.40
2018-08-20T09:58:07.035Z,4.50
2018-08-20T09:59:07.101Z,4.60
2018-08-20T10:00:07.044Z,4.30
2018-08-20T10:01:07.054Z,4.90
2018-08-20T10:02:07.058Z,5.30
2018-08-20T10:03:07.059Z,4.90
2018-08-20T10:04:07.059Z,4.50
2018-08-20T10:05:07.057Z,4.50
2018-08-20T10:06:07.114Z,4.90
2018-08-20T10:07:07.077Z,4.70
2018-08-20T10:08:07.072Z,4.40
2018-08-20T10:09:07.136Z,4.90
2018-08-20T10:10:07.113Z,4.60
2018-08-20T10:11:07.086Z,4.60
2018-08-20T10:12:07.094Z,4.60
2018-08-20T10:13:07.096Z,4.60
2018-08-20T10:14:07.161Z,4.60
2018-08-20T10:15:07.098Z,4.70
2018-08-20T10:16:07.146Z,4.80
2018-08-20T10:17:07.110Z,4.50
2018-08-20T10:18:07.113Z,4.50
2018-08-20T10:19:07.118Z,4.70
2018-08-20T10:20:07.126Z,4.20
2018-08-20T10:21:07.128Z,4.10
2018-08-20T10:22:07.138Z,4.20
2018-08-20T10:23:07.136Z,4.50
2018-08-20T10:24:07.230Z,4.50
2018-08-20T10:25:07.143Z,3.90
2018-08-20T10:26:07.148Z,4.30
2018-08-20T10:27:07.152Z,4.00
2018-08-20T10:28:07.156Z,4.20
2018-08-20T10:29:07.160Z,4.00
2018-08-20T10:30:07.164Z,3.80
2018-08-20T10:31:07.169Z,4.20
2018-08-20T10:32:07.225Z,4.10
2018-08-20T10:33:07.175Z,4.10
2018-08-20T10:34:07.180Z,4.10
2018-08-20T10:35:07.185Z,4.00
2018-08-20T10:36:07.192Z,3.70
2018-08-20T10:37:07.194Z,3.90
2018-08-20T10:38:07.200Z,3.90
2018-08-20T10:39:07.207Z,3.40
2018-08-20T10:40:07.212Z,3.50
2018-08-20T10:41:07.213Z,3.80
2018-08-20T10:42:07.227Z,3.60
2018-08-20T10:43:07.221Z,3.20
2018-08-20T10:44:07.227Z,3.30
2018-08-20T10:45:07.231Z,3.60
2018-08-20T10:46:07.236Z,3.40
2018-08-20T10:47:07.241Z,3.40
2018-08-20T10:48:07.253Z,3.50
2018-08-20T10:49:07.251Z,3.20
2018-08-20T10:50:07.352Z,3.00
2018-08-20T10:51:07.260Z,3.10
2018-08-20T10:52:07.264Z,3.00
2018-08-20T10:53:07.272Z,3.20
2018-08-20T10:54:07.277Z,3.20
2018-08-20T10:55:07.286Z,3.00
2018-08-20T10:56:07.285Z,3.10
2018-08-20T10:57:07.289Z,3.20
2018-08-20T10:58:07.294Z,3.60
2018-08-20T10:59:07.294Z,3.50
2018-08-20T11:00:07.304Z,3.30
2018-08-20T11:01:07.306Z,3.20
2018-08-20T11:02:07.361Z,3.20
2018-08-20T11:03:07.315Z,3.20
2018-08-20T11:04:07.322Z,2.90
2018-08-20T11:05:07.325Z,2.90
2018-08-20T11:06:07.332Z,3.00
2018-08-20T11:07:07.359Z,3.10
2018-08-20T11:08:07.341Z,3.00
2018-08-20T11:09:07.347Z,3.30
2018-08-20T11:10:07.362Z,3.00
2018-08-20T11:11:07.363Z,3.00
2018-08-20T11:12:07.360Z,3.00
2018-08-20T11:13:07.363Z,3.30
2018-08-20T11:14:07.368Z,3.20
2018-08-20T11:15:07.372Z,3.00
2018-08-20T11:16:07.415Z,2.90
2018-08-20T11:17:07.381Z,2.80
2018-08-20T11:18:07.386Z,2.90
2018-08-20T11:19:07.390Z,3.20
2018-08-20T11:20:07.395Z,3.30
2018-08-20T11:21:07.396Z,3.00
2018-08-20T11:22:07.473Z,3.00
2018-08-20T11:23:07.421Z,3.10
2018-08-20T11:24:07.413Z,3.50
2018-08-20T11:25:07.415Z,3.20
2018-08-20T11:26:07.422Z,3.10
2018-08-20T11:27:07.648Z,3.20
2018-08-20T11:28:07.426Z,3.00
2018-08-20T11:29:07.436Z,3.30
2018-08-20T11:30:07.463Z,3.20
2018-08-20T11:31:07.438Z,3.00
2018-08-20T11:32:07.442Z,3.00
2018-08-20T11:33:07.548Z,3.10
2018-08-20T11:34:07.454Z,3.10
2018-08-20T11:35:07.470Z,3.10
2018-08-20T11:36:07.458Z,3.00
2018-08-20T11:37:07.533Z,3.20
2018-08-20T11:38:07.466Z,3.00
2018-08-20T11:39:07.470Z,2.80
2018-08-20T11:40:07.474Z,2.90
2018-08-20T11:41:07.640Z,2.80
2018-08-20T11:42:07.478Z,2.90
2018-08-20T11:43:07.487Z,2.80
2018-08-20T11:44:07.488Z,2.60
2018-08-20T11:45:07.493Z,2.70
2018-08-20T11:46:07.499Z,2.50
2018-08-20T11:47:07.690Z,2.70
2018-08-20T11:48:07.507Z,2.60
2018-08-20T11:49:07.593Z,2.30
2018-08-20T11:50:07.511Z,2.40
2018-08-20T11:51:07.511Z,2.60
2018-08-20T11:52:07.521Z,2.50
2018-08-20T11:53:07.520Z,2.40
2018-08-20T11:54:07.524Z,2.40
2018-08-20T11:55:07.528Z,2.60
2018-08-20T11:56:07.534Z,2.50
2018-08-20T11:57:07.535Z,2.40
2018-08-20T11:58:07.580Z,2.70
2018-08-20T11:59:07.581Z,2.10
2018-08-20T12:00:07.549Z,2.50
2018-08-20T12:01:07.548Z,2.20
2018-08-20T12:02:07.552Z,2.40
2018-08-20T12:03:07.554Z,2.30
2018-08-20T12:04:07.604Z,2.40
2018-08-20T12:05:07.565Z,2.30
2018-08-20T12:06:07.566Z,2.30
2018-08-20T12:07:07.596Z,2.40
2018-08-20T12:08:07.573Z,2.40
2018-08-20T12:09:07.579Z,2.10
2018-08-20T12:10:07.584Z,2.60
2018-08-20T12:11:07.584Z,2.40
2018-08-20T12:12:07.591Z,2.20
2018-08-20T12:13:07.585Z,1.90
2018-08-20T12:14:07.593Z,2.10
2018-08-20T12:15:07.595Z,2.60
2018-08-20T12:16:07.601Z,1.80
2018-08-20T12:17:07.663Z,1.90
2018-08-20T12:18:07.608Z,1.90
2018-08-20T12:19:07.612Z,1.80
2018-08-20T12:20:07.616Z,1.90
2018-08-20T12:21:07.625Z,1.70
2018-08-20T12:22:07.622Z,1.80
2018-08-20T12:23:07.681Z,1.80
2018-08-20T12:24:07.632Z,1.90
2018-08-20T12:25:07.637Z,1.90
2018-08-20T12:26:07.640Z,1.80
2018-08-20T12:27:07.644Z,2.00
2018-08-20T12:28:07.683Z,1.70
2018-08-20T12:29:07.650Z,1.70
2018-08-20T12:30:07.704Z,1.80
2018-08-20T12:31:07.654Z,1.80
2018-08-20T12:32:07.662Z,1.90
2018-08-20T12:33:07.668Z,1.60
2018-08-20T12:34:07.669Z,1.80
2018-08-20T12:35:07.675Z,1.80
2018-08-20T12:36:07.676Z,1.70
2018-08-20T12:37:07.680Z,1.70
2018-08-20T12:38:07.796Z,2.00
2018-08-20T12:39:07.836Z,1.70
2018-08-20T12:40:07.764Z,1.80
2018-08-20T12:41:07.697Z,2.00
2018-08-20T12:42:07.697Z,1.90
2018-08-20T12:43:07.870Z,1.70
2018-08-20T12:44:07.749Z,1.90
2018-08-20T12:45:07.712Z,2.00
2018-08-20T12:46:07.719Z,1.90
2018-08-20T12:47:07.727Z,2.00
2018-08-20T12:48:07.733Z,2.20
2018-08-20T12:49:07.728Z,2.00
2018-08-20T12:50:07.729Z,2.00
2018-08-20T12:51:07.736Z,2.10
2018-08-20T12:52:07.740Z,2.00
2018-08-20T12:53:07.755Z,1.80
2018-08-20T12:54:07.750Z,2.20
2018-08-20T12:55:07.751Z,2.20
2018-08-20T12:56:07.750Z,2.10
2018-08-20T12:57:07.761Z,2.20
2018-08-20T12:58:07.763Z,2.10
2018-08-20T12:59:07.765Z,2.10
2018-08-20T13:00:07.772Z,2.00
2018-08-20T13:01:07.777Z,2.00
2018-08-20T13:02:07.777Z,2.10
2018-08-20T13:03:07.783Z,2.20
2018-08-20T13:04:07.786Z,2.20
2018-08-20T13:05:07.925Z,2.30
2018-08-20T13:06:07.803Z,2.00
2018-08-20T13:07:07.798Z,2.40
2018-08-20T13:08:07.803Z,2.00
2018-08-20T13:09:07.808Z,2.10
2018-08-20T13:10:07.815Z,2.20
2018-08-20T13:11:07.822Z,1.90
2018-08-20T13:12:07.982Z,2.20
2018-08-20T13:13:07.824Z,2.30
2018-08-20T13:14:07.849Z,2.20
2018-08-20T13:15:07.828Z,2.10
2018-08-20T13:16:08.202Z,2.30
2018-08-20T13:17:07.835Z,2.20
2018-08-20T13:18:07.838Z,2.20